Latest Weather Observations for Hay Airport

IDN60801

Issued at 7:23 pm EST Monday 4 July 2022 (issued every 10 minutes, with the page automatically refreshed every 10 minutes)

About weather observations | Map of weather stations | Latest weather observations for NSW | Other Formats
Station Details ID: 075019 Name: HAY AIRPORT AWS Lat: -34.54 Lon: 144.83 Height: 92.0 m
Data from the previous 72 hours. | See also: Recent months at Hay Airport
Date/Time
EST
Temp
°C
App
Temp
°C
Dew
Point
°C
Rel
Hum
%
Delta-T
°C
Wind Press
QNH
hPa
Press
MSL
hPa
Rain since
9am
mm
Dir  Spd
km/h
Gust
km/h
Spd
kts
Gust
kts
04/07:00pm 5.7 1.1 3.9 88 0.8 SSW 17 22 9 12 1022.6 1022.7 0.0
04/06:30pm 6.4 1.9 4.1 85 1.0 SSW 17 19 9 10 1022.4 1022.6 0.0
04/06:00pm 6.6 2.5 4.1 84 1.1 SSW 15 19 8 10 1022.2 1022.4 0.0
04/05:30pm 8.1 4.0 4.1 76 1.7 SSW 15 17 8 9 1022.1 1022.3 0.0
04/05:00pm 11.0 6.6 4.9 66 2.8 SSW 17 20 9 11 1022.0 1022.2 0.0
04/04:30pm 12.6 7.7 5.1 60 3.5 SSW 20 28 11 15 1021.9 1022.1 0.0
04/04:00pm 13.7 8.6 4.3 53 4.3 S 20 28 11 15 1021.6 1021.8 0.0
04/03:30pm 14.1 8.9 3.8 50 4.7 S 20 30 11 16 1021.8 1022.0 0.0
04/03:00pm 14.6 9.8 4.6 51 4.6 S 19 30 10 16 1021.8 1022.0 0.0
04/02:30pm 14.5 9.1 4.5 51 4.7 S 22 32 12 17 1021.6 1021.8 0.0
04/02:00pm 14.4 9.4 4.4 51 4.6 S 20 30 11 16 1021.6 1021.8 0.0
04/01:30pm 13.9 8.9 4.8 54 4.2 S 20 28 11 15 1021.9 1022.1 0.0
04/01:00pm 13.7 9.0 5.1 56 4.0 S 19 26 10 14 1022.1 1022.3 0.0
04/12:30pm 13.4 8.5 5.1 57 3.9 SSE 20 28 11 15 1022.8 1022.9 0.0
04/12:00pm 12.7 8.4 5.4 61 3.4 S 17 22 9 12 1023.2 1023.3 0.0
04/11:30am 11.3 6.7 5.4 67 2.7 SSE 19 24 10 13 1023.5 1023.6 0.0
04/11:00am 10.4 6.1 5.4 71 2.3 SSE 17 24 9 13 1023.7 1023.8 0.0
04/10:30am 9.2 4.6 5.6 78 1.6 SSE 19 24 10 13 1024.0 1024.1 0.0
04/10:00am 8.2 4.4 5.8 85 1.1 SSE 15 20 8 11 1023.8 1023.9 0.0
04/09:30am 6.4 2.2 5.7 95 0.3 SSE 17 22 9 12 1023.6 1023.7 0.0
04/09:00am 4.6 0.9 4.5 99 0.0 SSE 13 19 7 10 1023.5 1023.6 0.2
04/08:30am 2.2 -1.9 2.1 99 0.0 S 13 17 7 9 1023.3 1023.4 0.2
04/08:00am 0.8 -3.5 0.7 99 0.0 S 13 17 7 9 1023.1 1023.2 0.2
04/07:30am 0.9 -3.4 0.8 99 0.0 S 13 20 7 11 1023.0 1023.1 0.2
04/07:00am 0.6 -3.8 0.5 99 0.0 S 13 17 7 9 1022.8 1022.9 0.2
04/06:30am 0.1 -3.6 0.0 99 0.0 S 9 15 5 8 1022.7 1022.8 0.2
04/06:00am 0.1 -3.6 0.0 99 0.0 SSE 9 13 5 7 1022.4 1022.6 0.2
04/05:30am 0.3 -3.7 0.2 99 0.0 S 11 15 6 8 1022.2 1022.4 0.2
04/05:00am 0.1 -4.0 0.0 99 0.0 SSW 11 15 6 8 1022.0 1022.2 0.2
04/04:30am 0.2 -3.9 0.1 99 0.0 SSW 11 13 6 7 1022.0 1022.2 0.2
04/04:00am 0.6 -3.4 0.5 99 0.0 SSW 11 13 6 7 1022.1 1022.3 0.0
04/03:30am 0.9 -3.4 0.8 99 0.0 SSW 13 17 7 9 1022.0 1022.2 0.0
04/03:00am 1.5 -2.4 1.4 99 0.0 S 11 15 6 8 1022.0 1022.2 0.0
04/02:30am 1.6 -2.6 1.5 99 0.0 SSW 13 17 7 9 1022.0 1022.2 0.0
04/02:00am 1.3 -2.6 1.2 99 0.0 SSW 11 13 6 7 1022.1 1022.3 0.0
04/01:30am 1.0 -2.9 0.9 99 0.0 SSW 11 13 6 7 1022.4 1022.6 0.0
04/01:00am 1.8 -1.2 1.7 99 0.0 SSW 7 9 4 5 1022.9 1023.0 0.0
04/12:30am 2.4 -1.3 2.3 99 0.0 SSW 11 15 6 8 1023.0 1023.1 0.0
04/12:00am 2.8 -1.2 2.7 99 0.0 S 13 15 7 8 1023.0 1023.1 0.0
 
Date/Time
EST
Temp
°C
App
Temp
°C
Dew
Point
°C
Rel
Hum
%
Delta-T
°C
Wind Press
QNH
hPa
Press
MSL
hPa
Rain since
9am
mm
Dir  Spd
km/h
Gust
km/h
Spd
kts
Gust
kts
03/11:30pm 3.7 -0.5 3.6 99 0.0 S 15 19 8 10 1023.0 1023.1 0.0
03/11:00pm 4.3 0.2 4.2 99 0.0 SSW 15 19 8 10 1023.0 1023.1 0.0
03/10:30pm 3.8 -0.8 3.7 99 0.0 SSW 17 19 9 10 1022.8 1022.9 0.0
03/10:00pm 3.7 -0.2 3.6 99 0.0 SW 13 15 7 8 1023.1 1023.2 0.0
03/09:30pm 3.4 0.2 3.3 99 0.0 SW 9 11 5 6 1023.2 1023.3 0.0
03/09:00pm 4.8 1.1 4.5 98 0.1 SSW 13 15 7 8 1023.3 1023.4 0.0
03/08:30pm 5.3 1.7 5.0 98 0.1 SSW 13 15 7 8 1023.2 1023.3 0.0
03/08:00pm 6.4 2.9 5.4 93 0.4 SSW 13 15 7 8 1023.4 1023.5 0.0
03/07:30pm 7.6 3.8 5.9 89 0.8 SSW 15 17 8 9 1023.3 1023.4 0.0
03/07:00pm 8.6 4.5 6.2 85 1.1 SSW 17 20 9 11 1022.8 1022.9 0.0
03/06:30pm 8.8 5.4 5.9 82 1.3 SSW 13 17 7 9 1022.9 1023.0 0.0
03/06:00pm 9.9 6.2 6.1 77 1.8 SSW 15 17 8 9 1022.6 1022.7 0.0
03/05:30pm 11.1 7.6 5.6 69 2.6 SSW 13 17 7 9 1022.4 1022.6 0.0
03/05:00pm 12.2 7.9 5.4 63 3.2 SSW 17 20 9 11 1022.3 1022.5 0.0
03/04:30pm 13.2 8.9 5.1 58 3.8 S 17 20 9 11 1022.4 1022.6 0.0
03/04:00pm 13.7 9.7 4.8 55 4.1 S 15 20 8 11 1022.3 1022.5 0.0
03/03:30pm 13.4 9.4 5.1 57 3.9 SSE 15 20 8 11 1022.4 1022.6 0.0
03/03:00pm 13.6 8.8 4.5 54 4.2 SSE 19 24 10 13 1022.4 1022.6 0.0
03/02:30pm 14.7 9.9 4.7 51 4.7 SSE 19 26 10 14 1022.4 1022.6 0.0
03/02:00pm 14.9 10.5 4.9 51 4.7 SSE 17 24 9 13 1022.4 1022.6 0.0
03/01:30pm 14.7 9.9 4.7 51 4.7 S 19 24 10 13 1022.6 1022.7 0.0
03/01:00pm 14.6 9.7 4.9 52 4.5 S 20 28 11 15 1022.7 1022.8 0.0
03/12:30pm 13.8 9.8 4.9 55 4.2 S 15 22 8 12 1023.4 1023.5 0.0
03/12:00pm 13.3 9.0 5.2 58 3.8 S 17 20 9 11 1023.7 1023.8 0.0
03/11:30am 12.0 8.1 5.4 64 3.1 SSE 15 20 8 11 1024.3 1024.4 0.0
03/11:00am 10.6 6.0 5.6 71 2.3 SSE 19 24 10 13 1024.5 1024.6 0.0
03/10:30am 9.4 5.3 6.3 81 1.4 SSE 17 20 9 11 1024.8 1024.9 0.0
03/10:00am 7.6 3.0 5.6 87 0.9 SSE 19 22 10 12 1024.8 1024.9 0.0
03/09:30am 6.1 1.9 5.8 98 0.1 SSE 17 24 9 13 1024.6 1024.7 0.0
03/09:00am 4.3 -0.2 4.2 99 0.0 S 17 24 9 13 1024.5 1024.6 0.0
03/08:30am 1.4 -2.5 1.3 99 0.0 SSW 11 13 6 7 1024.4 1024.5 0.0
03/08:00am 1.4 -2.9 1.3 99 0.0 S 13 17 7 9 1024.4 1024.5 0.0
03/07:30am 1.4 -2.1 1.3 99 0.0 S 9 11 5 6 1024.3 1024.4 0.0
03/07:00am 2.0 -2.2 1.9 99 0.0 SSW 13 15 7 8 1024.1 1024.2 0.0
03/06:30am 2.4 -0.9 2.3 99 0.0 SSE 9 13 5 7 1024.0 1024.1 0.0
03/06:00am 3.1 -1.2 3.0 99 0.0 S 15 20 8 11 1023.4 1023.5 0.0
03/05:30am 2.9 -1.5 2.8 99 0.0 S 15 20 8 11 1023.2 1023.3 0.0
03/05:00am 2.5 -2.0 2.4 99 0.0 S 15 20 8 11 1023.2 1023.3 0.0
03/04:30am 2.4 -2.5 2.3 99 0.0 S 17 20 9 11 1023.2 1023.3 0.0
03/04:00am 2.3 -2.6 2.2 99 0.0 SSW 17 20 9 11 1023.5 1023.6 0.0
03/03:30am 1.7 -2.5 1.6 99 0.0 SSW 13 17 7 9 1023.9 1024.0 0.0
03/03:00am 1.0 -2.9 0.9 99 0.0 SW 11 15 6 8 1024.0 1024.1 0.0
03/02:30am 1.4 -3.2 1.3 99 0.0 SW 15 17 8 9 1024.3 1024.4 0.0
03/02:00am 1.0 -2.9 0.9 99 0.0 SW 11 13 6 7 1024.7 1024.8 0.0
03/01:30am 0.5 -3.1 0.4 99 0.0 WSW 9 11 5 6 1024.6 1024.7 0.0
03/01:00am 0.9 -2.7 0.8 99 0.0 SW 9 13 5 7 1024.4 1024.5 0.0
03/12:30am 0.6 -3.8 0.5 99 0.0 SW 13 17 7 9 1024.5 1024.6 0.0
03/12:00am 0.5 -3.1 0.4 99 0.0 SW 9 11 5 6 1024.9 1025.0 0.0
 
Date/Time
EST
Temp
°C
App
Temp
°C
Dew
Point
°C
Rel
Hum
%
Delta-T
°C
Wind Press
QNH
hPa
Press
MSL
hPa
Rain since
9am
mm
Dir  Spd
km/h
Gust
km/h
Spd
kts
Gust
kts
02/11:30pm 2.0 -1.8 1.9 99 0.0 SSW 11 13 6 7 1025.1 1025.2 0.0
02/11:00pm 3.1 -1.2 3.0 99 0.0 SSW 15 17 8 9 1025.2 1025.3 0.0
02/10:30pm 4.4 -0.1 4.3 99 0.0 S 17 20 9 11 1025.4 1025.5 0.0
02/10:00pm 3.4 -0.5 3.3 99 0.0 SSW 13 17 7 9 1025.2 1025.3 0.0
02/09:30pm 3.3 -1.0 3.2 99 0.0 SW 15 17 8 9 1025.1 1025.2 0.0
02/09:00pm 3.4 -0.5 3.3 99 0.0 SW 13 17 7 9 1025.2 1025.3 0.0
02/08:30pm 4.1 0.7 4.0 99 0.0 SW 11 15 6 8 1025.6 1025.7 0.0
02/08:00pm 4.1 1.1 4.0 99 0.0 SW 9 11 5 6 1025.7 1025.8 0.0
02/07:30pm 4.9 1.6 4.8 99 0.0 SSW 11 13 6 7 1025.8 1025.9 0.0
02/07:00pm 5.4 1.9 5.3 99 0.0 SSW 13 15 7 8 1025.6 1025.7 0.0
02/06:30pm 6.3 3.2 5.6 95 0.3 SSW 11 13 6 7 1025.4 1025.5 0.0
02/06:00pm 7.1 3.6 5.4 89 0.8 SSW 13 17 7 9 1025.2 1025.3 0.0
02/05:30pm 8.8 5.7 5.7 81 1.4 S 11 15 6 8 1025.5 1025.6 0.0
02/05:00pm 10.8 7.1 6.4 74 2.1 SSW 15 20 8 11 1025.4 1025.5 0.0
02/04:30pm 12.2 8.3 5.4 63 3.2 SSE 15 20 8 11 1025.6 1025.7 0.0
02/04:00pm 12.9 8.3 5.6 61 3.4 S 19 26 10 14 1025.2 1025.3 0.0
02/03:30pm 13.1 7.6 5.8 61 3.5 SSW 24 30 13 16 1024.9 1025.0 0.0
02/03:00pm 13.5 8.0 5.9 60 3.6 SSW 24 30 13 16 1024.8 1024.9 0.0
02/02:30pm 13.3 7.9 6.2 62 3.4 SW 24 32 13 17 1024.8 1024.9 0.0
02/02:00pm 13.5 8.4 6.1 61 3.5 SSW 22 30 12 16 1024.9 1025.0 0.0
02/01:30pm 13.2 7.5 5.1 58 3.8 SSW 24 30 13 16 1025.3 1025.4 0.0
02/01:00pm 12.7 8.1 6.5 66 3.0 SW 20 30 11 16 1025.7 1025.8 0.0
02/12:30pm 12.6 8.4 7.5 71 2.5 S 19 26 10 14 1026.5 1026.7 0.0
02/12:00pm 11.8 7.3 7.1 73 2.2 S 20 24 11 13 1027.2 1027.4 0.0
02/11:30am 11.3 7.0 7.2 76 2.0 S 19 22 10 12 1027.7 1027.9 0.0
02/11:00am 10.5 7.0 7.4 81 1.5 SSE 15 20 8 11 1028.0 1028.2 0.0
02/10:30am 9.0 5.1 7.3 89 0.8 S 17 22 9 12 1028.2 1028.4 0.0
02/10:00am 8.2 4.1 7.9 98 0.1 S 19 22 10 12 1028.2 1028.4 0.0
02/09:30am 6.4 1.9 6.3 99 0.0 SSW 19 24 10 13 1028.1 1028.3 0.0
02/09:00am 5.0 1.0 5.0 100 0.0 S 15 20 8 11 1028.1 1028.3 0.2
02/08:30am 2.9 0.1 2.9 100 0.0 SSE 7 13 4 7 1028.1 1028.3 0.2
02/08:00am 1.3 -2.6 1.2 99 0.0 SSW 11 13 6 7 1028.0 1028.2 0.2
02/07:30am 1.1 -2.8 1.0 99 0.0 SSW 11 13 6 7 1027.7 1027.9 0.0
02/07:00am 1.9 -1.5 1.8 99 0.0 S 9 13 5 7 1027.6 1027.8 0.0
02/06:30am 2.3 -1.8 2.2 99 0.0 SSW 13 15 7 8 1027.4 1027.6 0.0
02/06:00am 2.4 -2.1 2.3 99 0.0 SSW 15 19 8 10 1027.3 1027.5 0.0
02/05:30am 2.4 -2.1 2.3 99 0.0 SSW 15 19 8 10 1027.4 1027.6 0.0
02/05:00am 2.9 -1.5 2.8 99 0.0 SSW 15 17 8 9 1027.1 1027.3 0.0
02/04:30am 2.7 -1.3 2.6 99 0.0 SW 13 15 7 8 1027.1 1027.3 0.0
02/04:00am 2.1 -1.7 2.0 99 0.0 SW 11 13 6 7 1027.1 1027.3 0.0
02/03:30am 1.5 -2.4 1.4 99 0.0 SW 11 13 6 7 1027.1 1027.3 0.0
02/03:00am 1.4 -2.5 1.3 99 0.0 WSW 11 11 6 6 1027.2 1027.4 0.0
02/02:30am 0.9 -2.7 0.8 99 0.0 W 9 11 5 6 1027.2 1027.4 0.0
02/02:00am 1.4 -2.1 1.3 99 0.0 WSW 9 11 5 6 1027.3 1027.5 0.0
02/01:30am 0.6 -2.4 0.5 99 0.0 WSW 6 7 3 4 1027.4 1027.6 0.0
02/01:00am 1.9 -1.5 1.8 99 0.0 SW 9 11 5 6 1027.6 1027.8 0.0
02/12:30am 2.3 -0.1 2.2 99 0.0 SSW 4 6 2 3 1027.8 1028.0 0.0
02/12:00am 2.8 -0.5 2.7 99 0.0 S 9 11 5 6 1027.9 1028.1 0.0
 
Date/Time
EST
Temp
°C
App
Temp
°C
Dew
Point
°C
Rel
Hum
%
Delta-T
°C
Wind Press
QNH
hPa
Press
MSL
hPa
Rain since
9am
mm
Dir  Spd
km/h
Gust
km/h
Spd
kts
Gust
kts
01/11:30pm 4.1 0.7 4.0 99 0.0 S 11 15 6 8 1027.8 1028.0 0.0
01/11:00pm 3.4 -0.1 3.3 99 0.0 S 11 13 6 7 1028.0 1028.2 0.0
01/10:30pm 3.7 -0.2 3.6 99 0.0 SSW 13 17 7 9 1027.8 1028.0 0.0
01/10:00pm 3.6 0.1 3.5 99 0.0 SSW 11 13 6 7 1028.0 1028.2 0.0
01/09:30pm 3.6 0.1 3.5 99 0.0 SW 11 11 6 6 1028.0 1028.2 0.0
01/09:00pm 5.0 2.5 4.9 99 0.0 SSW 7 9 4 5 1028.0 1028.2 0.0
01/08:30pm 5.9 2.5 5.8 99 0.0 SSW 13 15 7 8 1028.1 1028.3 0.0
01/08:00pm 5.8 2.7 5.7 99 0.0 SSW 11 13 6 7 1028.0 1028.2 0.0
01/07:30pm 7.3 3.8 7.0 98 0.1 SSW 15 17 8 9 1027.7 1027.9 0.0

Other formats

Comma delimited format used in spreadsheet applications
http://www.bom.gov.au/fwo/IDN60801/IDN60801.94702.axf

JavaScript Object Notation format (JSON) in row-major order
http://www.bom.gov.au/fwo/IDN60801/IDN60801.94702.json

Data quality

Most of these data are generated automatically and are frequently updated. Quality checks on data are not normally performed. It is possible for incorrect values to appear. Refer to information at About Latest Weather Observations and please check the disclaimer before using these data.